Cannonville, Utah
Current Conditions -  °F | °C
As of 9:53 PM on Saturday 22 Nov 2014 (Local Time) from KBCE Reporting Station
Overcast Overcast  
Wind Chill: 30°   Ceiling: 4600
Heat Index: 37°   Visibility: 10mi
Dew Point: 21°   Wind: 10mph
Humidity: 52%   Direction: 300°WNW
Pressure: 29.92"   Gusts: NA
Location:  37.57°N, 112.05°W
Report Text: KBCE 230453Z AUTO 30009KT 10SM SCT040 BKN046 OVC055 03/M06 A2992 RMK AO2 SLP070 T00281061
Loading
Personal Weather Stations






























Interactive Weather Map New forecast layout! Learn more

10-Day Weather Forecast

Advertisements
Track Severe Weather on mobile